sensor_id;sensor_type;location;lat;lon;timestamp;pressure;altitude;pressure_sealevel;temperature;humidity
58775;BME280;44545;47.480;19.024;2023-04-19T03:12:37;99962.91;;;10.44;61.19
58775;BME280;44545;47.480;19.024;2023-04-19T03:15:39;99960.28;;;10.26;61.68
58775;BME280;44545;47.480;19.024;2023-04-19T03:18:42;99958.31;;;10.22;61.46
58775;BME280;44545;47.480;19.024;2023-04-19T03:21:45;99954.69;;;10.18;62.01
58775;BME280;44545;47.480;19.024;2023-04-19T03:24:48;99953.25;;;10.07;62.11
58775;BME280;44545;47.480;19.024;2023-04-19T03:27:51;99948.28;;;10.11;62.75
58775;BME280;44545;47.480;19.024;2023-04-19T03:30:56;99952.12;;;10.02;63.30
58775;BME280;44545;47.480;19.024;2023-04-19T03:33:59;99953.63;;;9.96;63.66
58775;BME280;44545;47.480;19.024;2023-04-19T03:37:02;99950.28;;;9.99;63.94
58775;BME280;44545;47.480;19.024;2023-04-19T03:40:05;99944.69;;;9.91;64.58
58775;BME280;44545;47.480;19.024;2023-04-19T03:43:08;99949.28;;;9.79;64.70
58775;BME280;44545;47.480;19.024;2023-04-19T03:46:10;99954.25;;;9.74;65.17
58775;BME280;44545;47.480;19.024;2023-04-19T03:49:12;99948.00;;;9.71;64.23
58775;BME280;44545;47.480;19.024;2023-04-19T03:52:15;99948.88;;;9.71;64.92
58775;BME280;44545;47.480;19.024;2023-04-19T03:55:18;99945.53;;;9.74;64.97
58775;BME280;44545;47.480;19.024;2023-04-19T03:58:21;99945.31;;;9.69;64.81
58775;BME280;44545;47.480;19.024;2023-04-19T04:01:25;99951.50;;;9.71;64.97
58775;BME280;44545;47.480;19.024;2023-04-19T04:04:28;99945.13;;;9.83;65.53
58775;BME280;44545;47.480;19.024;2023-04-19T04:07:31;99949.13;;;9.76;65.22
58775;BME280;44545;47.480;19.024;2023-04-19T04:10:34;99946.22;;;9.70;64.12
58775;BME280;44545;47.480;19.024;2023-04-19T04:13:36;99948.25;;;9.75;64.83
58775;BME280;44545;47.480;19.024;2023-04-19T04:16:44;99941.84;;;9.87;64.57
58775;BME280;44545;47.480;19.024;2023-04-19T04:19:46;99936.38;;;10.52;63.62
58775;BME280;44545;47.480;19.024;2023-04-19T04:22:49;99943.69;;;10.41;62.83
58775;BME280;44545;47.480;19.024;2023-04-19T04:25:58;99942.56;;;10.36;63.09
58775;BME280;44545;47.480;19.024;2023-04-19T04:29:07;99940.97;;;10.58;62.08
58775;BME280;44545;47.480;19.024;2023-04-19T04:32:09;99941.13;;;10.43;63.15
58775;BME280;44545;47.480;19.024;2023-04-19T04:35:13;99934.59;;;10.51;62.90
58775;BME280;44545;47.480;19.024;2023-04-19T04:38:16;99942.25;;;10.66;63.18
58775;BME280;44545;47.480;19.024;2023-04-19T04:41:26;99934.81;;;10.75;62.60
58775;BME280;44545;47.480;19.024;2023-04-19T04:44:29;99937.91;;;10.86;62.45
58775;BME280;44545;47.480;19.024;2023-04-19T04:47:34;99932.19;;;11.13;56.90
58775;BME280;44545;47.480;19.024;2023-04-19T04:50:37;99930.91;;;11.24;59.48
58775;BME280;44545;47.480;19.024;2023-04-19T04:53:40;99939.78;;;11.47;57.85
58775;BME280;44545;47.480;19.024;2023-04-19T04:56:43;99928.31;;;11.64;58.89
58775;BME280;44545;47.480;19.024;2023-04-19T04:59:46;99930.88;;;11.84;57.95
58775;BME280;44545;47.480;19.024;2023-04-19T05:02:52;99928.25;;;12.03;58.38
58775;BME280;44545;47.480;19.024;2023-04-19T05:05:56;99923.47;;;12.14;53.21
58775;BME280;44545;47.480;19.024;2023-04-19T05:08:59;99922.91;;;12.44;54.63
58775;BME280;44545;47.480;19.024;2023-04-19T05:12:03;99930.13;;;12.73;54.96
58775;BME280;44545;47.480;19.024;2023-04-19T05:15:06;99920.84;;;13.04;51.60
58775;BME280;44545;47.480;19.024;2023-04-19T05:18:11;99913.34;;;13.37;53.02
58775;BME280;44545;47.480;19.024;2023-04-19T05:21:13;99917.59;;;13.85;52.24
58775;BME280;44545;47.480;19.024;2023-04-19T05:24:17;99920.56;;;14.23;50.12
58775;BME280;44545;47.480;19.024;2023-04-19T05:27:20;99913.38;;;14.44;47.55
58775;BME280;44545;47.480;19.024;2023-04-19T05:30:23;99912.59;;;15.06;45.65
58775;BME280;44545;47.480;19.024;2023-04-19T05:33:25;99909.72;;;15.60;45.41
58775;BME280;44545;47.480;19.024;2023-04-19T05:36:29;99909.81;;;15.65;44.71
58775;BME280;44545;47.480;19.024;2023-04-19T05:39:33;99898.16;;;17.00;40.87
58775;BME280;44545;47.480;19.024;2023-04-19T05:42:37;99904.97;;;17.82;38.47
58775;BME280;44545;47.480;19.024;2023-04-19T05:45:39;99896.97;;;18.91;36.91
58775;BME280;44545;47.480;19.024;2023-04-19T05:48:42;99904.91;;;19.69;36.52
58775;BME280;44545;47.480;19.024;2023-04-19T05:51:45;99897.34;;;20.12;34.20
58775;BME280;44545;47.480;19.024;2023-04-19T05:54:48;99895.28;;;21.09;31.95
58775;BME280;44545;47.480;19.024;2023-04-19T05:57:50;99891.09;;;22.21;30.42
58775;BME280;44545;47.480;19.024;2023-04-19T06:00:57;99888.25;;;22.97;29.96
58775;BME280;44545;47.480;19.024;2023-04-19T06:04:00;99887.53;;;22.33;30.59
58775;BME280;44545;47.480;19.024;2023-04-19T06:07:03;99887.41;;;22.76;29.79
58775;BME280;44545;47.480;19.024;2023-04-19T06:10:09;99893.25;;;20.54;32.41
58775;BME280;44545;47.480;19.024;2023-04-19T06:13:12;99899.38;;;19.46;34.60
58775;BME280;44545;47.480;19.024;2023-04-19T06:16:15;99897.97;;;19.79;35.85
58775;BME280;44545;47.480;19.024;2023-04-19T06:19:17;99902.50;;;19.90;35.52
58775;BME280;44545;47.480;19.024;2023-04-19T06:22:20;99894.81;;;19.30;36.49
58775;BME280;44545;47.480;19.024;2023-04-19T06:25:23;99897.91;;;18.95;35.38
58775;BME280;44545;47.480;19.024;2023-04-19T06:28:26;99887.72;;;18.60;35.97
58775;BME280;44545;47.480;19.024;2023-04-19T06:31:28;99890.94;;;19.03;36.36
58775;BME280;44545;47.480;19.024;2023-04-19T06:34:31;99900.13;;;18.06;38.71
58775;BME280;44545;47.480;19.024;2023-04-19T06:37:33;99894.84;;;18.64;36.42
58775;BME280;44545;47.480;19.024;2023-04-19T06:40:38;99892.03;;;19.20;35.46
58775;BME280;44545;47.480;19.024;2023-04-19T06:43:40;99895.00;;;19.48;34.73
58775;BME280;44545;47.480;19.024;2023-04-19T06:46:44;99891.50;;;19.51;35.78
58775;BME280;44545;47.480;19.024;2023-04-19T06:49:47;99885.53;;;18.92;34.97
58775;BME280;44545;47.480;19.024;2023-04-19T06:52:50;99879.09;;;19.45;35.31
58775;BME280;44545;47.480;19.024;2023-04-19T06:55:58;99887.19;;;19.60;33.88
58775;BME280;44545;47.480;19.024;2023-04-19T06:59:03;99881.66;;;19.37;32.47
58775;BME280;44545;47.480;19.024;2023-04-19T07:02:06;99883.47;;;19.44;32.72
58775;BME280;44545;47.480;19.024;2023-04-19T07:05:09;99881.19;;;19.75;32.52
58775;BME280;44545;47.480;19.024;2023-04-19T07:08:11;99881.44;;;20.06;32.27
58775;BME280;44545;47.480;19.024;2023-04-19T07:11:14;99866.28;;;21.76;30.66
58775;BME280;44545;47.480;19.024;2023-04-19T07:14:16;99861.84;;;22.46;29.06
58775;BME280;44545;47.480;19.024;2023-04-19T07:17:22;99857.19;;;23.06;28.51
58775;BME280;44545;47.480;19.024;2023-04-19T07:20:24;99852.84;;;24.21;25.74
58775;BME280;44545;47.480;19.024;2023-04-19T07:23:27;99860.38;;;23.67;24.84
58775;BME280;44545;47.480;19.024;2023-04-19T07:26:30;99856.66;;;25.48;23.50
58775;BME280;44545;47.480;19.024;2023-04-19T07:29:36;99846.44;;;27.19;21.09
58775;BME280;44545;47.480;19.024;2023-04-19T07:32:38;99843.63;;;27.63;20.28
58775;BME280;44545;47.480;19.024;2023-04-19T07:35:41;99843.75;;;28.28;18.94
58775;BME280;44545;47.480;19.024;2023-04-19T07:38:43;99836.84;;;28.20;20.50
58775;BME280;44545;47.480;19.024;2023-04-19T07:41:50;99833.94;;;29.23;18.09
58775;BME280;44545;47.480;19.024;2023-04-19T07:45:06;99842.06;;;31.26;17.14
58775;BME280;44545;47.480;19.024;2023-04-19T07:48:10;99836.47;;;30.60;15.97
58775;BME280;44545;47.480;19.024;2023-04-19T07:51:14;99835.16;;;31.43;15.73
58775;BME280;44545;47.480;19.024;2023-04-19T07:54:22;99830.44;;;28.89;18.22
58775;BME280;44545;47.480;19.024;2023-04-19T07:57:25;99835.34;;;29.63;17.29
58775;BME280;44545;47.480;19.024;2023-04-19T08:00:27;99829.59;;;31.90;15.74
58775;BME280;44545;47.480;19.024;2023-04-19T08:03:32;99837.16;;;30.91;17.30
58775;BME280;44545;47.480;19.024;2023-04-19T08:06:36;99846.94;;;26.93;20.02
58775;BME280;44545;47.480;19.024;2023-04-19T08:09:49;99845.47;;;24.43;22.58
58775;BME280;44545;47.480;19.024;2023-04-19T08:12:51;99844.66;;;23.28;25.62
58775;BME280;44545;47.480;19.024;2023-04-19T08:16:07;99845.69;;;22.95;26.77
58775;BME280;44545;47.480;19.024;2023-04-19T08:19:12;99842.41;;;22.01;25.49
58775;BME280;44545;47.480;19.024;2023-04-19T08:22:15;99846.84;;;21.93;27.09
58775;BME280;44545;47.480;19.024;2023-04-19T08:25:19;99846.81;;;21.82;28.27
58775;BME280;44545;47.480;19.024;2023-04-19T08:28:22;99853.66;;;18.77;31.08
58775;BME280;44545;47.480;19.024;2023-04-19T08:31:24;99849.34;;;18.23;32.11
58775;BME280;44545;47.480;19.024;2023-04-19T08:34:27;99852.47;;;18.58;31.94
58775;BME280;44545;47.480;19.024;2023-04-19T08:37:29;99849.91;;;18.62;32.25
58775;BME280;44545;47.480;19.024;2023-04-19T08:40:32;99856.50;;;18.28;33.01
58775;BME280;44545;47.480;19.024;2023-04-19T08:43:36;99850.84;;;18.05;32.93
58775;BME280;44545;47.480;19.024;2023-04-19T08:46:42;99843.06;;;20.82;29.90
58775;BME280;44545;47.480;19.024;2023-04-19T08:49:46;99831.78;;;22.04;28.18
58775;BME280;44545;47.480;19.024;2023-04-19T08:52:50;99831.44;;;23.11;26.76
58775;BME280;44545;47.480;19.024;2023-04-19T08:56:06;99838.84;;;21.56;29.23
58775;BME280;44545;47.480;19.024;2023-04-19T08:59:28;99828.03;;;20.81;30.51
58775;BME280;44545;47.480;19.024;2023-04-19T09:02:46;99833.56;;;19.77;33.09
58775;BME280;44545;47.480;19.024;2023-04-19T09:05:50;99817.13;;;20.24;32.46
58775;BME280;44545;47.480;19.024;2023-04-19T09:08:52;99821.47;;;20.11;32.32
58775;BME280;44545;47.480;19.024;2023-04-19T09:12:35;99819.38;;;21.46;30.72
58775;BME280;44545;47.480;19.024;2023-04-19T09:15:39;99832.38;;;19.47;33.24
58775;BME280;44545;47.480;19.024;2023-04-19T09:18:53;99825.47;;;19.64;32.76
58775;BME280;44545;47.480;19.024;2023-04-19T09:22:12;99818.50;;;22.08;29.53
58775;BME280;44545;47.480;19.024;2023-04-19T09:25:25;99824.56;;;20.92;31.46
58775;BME280;44545;47.480;19.024;2023-04-19T09:28:30;99822.00;;;22.35;30.18
58775;BME280;44545;47.480;19.024;2023-04-19T09:31:35;99812.06;;;25.52;24.95
58775;BME280;44545;47.480;19.024;2023-04-19T09:34:57;99807.75;;;27.33;22.34
58775;BME280;44545;47.480;19.024;2023-04-19T09:38:01;99791.78;;;28.65;21.32
58775;BME280;44545;47.480;19.024;2023-04-19T09:41:07;99785.25;;;32.38;17.83
58775;BME280;44545;47.480;19.024;2023-04-19T09:44:12;99787.56;;;35.14;15.54
58775;BME280;44545;47.480;19.024;2023-04-19T09:47:26;99777.78;;;37.74;13.64
58775;BME280;44545;47.480;19.024;2023-04-19T09:50:31;99788.56;;;34.96;15.19
58775;BME280;44545;47.480;19.024;2023-04-19T09:53:43;99787.66;;;35.61;13.98
58775;BME280;44545;47.480;19.024;2023-04-19T09:56:46;99773.91;;;37.10;13.56
58775;BME280;44545;47.480;19.024;2023-04-19T09:59:49;99780.44;;;34.64;15.12
58775;BME280;44545;47.480;19.024;2023-04-19T10:02:55;99777.06;;;32.99;16.00
58775;BME280;44545;47.480;19.024;2023-04-19T10:06:00;99780.72;;;31.99;15.89
58775;BME280;44545;47.480;19.024;2023-04-19T10:09:17;99769.69;;;32.45;15.98
58775;BME280;44545;47.480;19.024;2023-04-19T10:12:23;99769.47;;;33.08;14.28
58775;BME280;44545;47.480;19.024;2023-04-19T10:15:31;99767.81;;;36.05;12.94
58775;BME280;44545;47.480;19.024;2023-04-19T10:18:54;99760.06;;;38.47;12.68
58775;BME280;44545;47.480;19.024;2023-04-19T10:21:58;99759.16;;;37.68;12.45
58775;BME280;44545;47.480;19.024;2023-04-19T10:25:12;99750.56;;;37.74;12.74
58775;BME280;44545;47.480;19.024;2023-04-19T10:28:15;99755.22;;;38.64;11.98
58775;BME280;44545;47.480;19.024;2023-04-19T10:31:19;99754.69;;;38.46;11.73
58775;BME280;44545;47.480;19.024;2023-04-19T10:34:38;99759.53;;;33.44;15.07
58775;BME280;44545;47.480;19.024;2023-04-19T10:38:10;99771.59;;;27.12;21.29
58775;BME280;44545;47.480;19.024;2023-04-19T10:41:14;99766.59;;;23.32;27.68
58775;BME280;44545;47.480;19.024;2023-04-19T10:44:26;99774.25;;;21.98;31.16
58775;BME280;44545;47.480;19.024;2023-04-19T10:47:43;99775.06;;;20.85;33.70
58775;BME280;44545;47.480;19.024;2023-04-19T10:51:01;99774.59;;;19.95;36.16
58775;BME280;44545;47.480;19.024;2023-04-19T10:54:07;99786.63;;;18.70;37.29
58775;BME280;44545;47.480;19.024;2023-04-19T10:57:10;99783.75;;;18.52;37.83
58775;BME280;44545;47.480;19.024;2023-04-19T11:00:20;99776.12;;;18.08;39.49
58775;BME280;44545;47.480;19.024;2023-04-19T11:09:53;99776.19;;;18.11;39.64
58775;BME280;44545;47.480;19.024;2023-04-19T11:12:56;99778.66;;;18.00;39.94
58775;BME280;44545;47.480;19.024;2023-04-19T11:15:59;99782.47;;;17.63;37.86
58775;BME280;44545;47.480;19.024;2023-04-19T11:19:04;99779.50;;;17.97;36.88
58775;BME280;44545;47.480;19.024;2023-04-19T11:22:06;99777.34;;;18.33;35.55
58775;BME280;44545;47.480;19.024;2023-04-19T11:25:16;99764.19;;;18.34;36.73
58775;BME280;44545;47.480;19.024;2023-04-19T11:28:20;99775.47;;;18.24;39.31
58775;BME280;44545;47.480;19.024;2023-04-19T11:31:23;99770.19;;;18.24;39.94
58775;BME280;44545;47.480;19.024;2023-04-19T11:34:26;99770.69;;;18.61;40.16
58775;BME280;44545;47.480;19.024;2023-04-19T11:37:31;99775.13;;;18.65;38.61
58775;BME280;44545;47.480;19.024;2023-04-19T11:40:37;99775.31;;;18.80;34.83
58775;BME280;44545;47.480;19.024;2023-04-19T11:43:40;99765.13;;;18.39;39.77
58775;BME280;44545;47.480;19.024;2023-04-19T11:47:00;99763.34;;;19.12;40.52
58775;BME280;44545;47.480;19.024;2023-04-19T11:50:47;99762.13;;;19.80;40.00
58775;BME280;44545;47.480;19.024;2023-04-19T11:53:31;99757.97;;;20.14;39.89
58775;BME280;44545;47.480;19.024;2023-04-19T11:56:33;99757.03;;;20.07;39.68
58775;BME280;44545;47.480;19.024;2023-04-19T11:59:36;99763.16;;;20.00;40.02
58775;BME280;44545;47.480;19.024;2023-04-19T12:02:39;99763.56;;;19.38;40.97
58775;BME280;44545;47.480;19.024;2023-04-19T12:05:55;99766.56;;;19.82;40.48
58775;BME280;44545;47.480;19.024;2023-04-19T12:08:58;99766.63;;;19.88;40.78
58775;BME280;44545;47.480;19.024;2023-04-19T12:12:01;99761.81;;;19.41;40.76
58775;BME280;44545;47.480;19.024;2023-04-19T12:15:05;99756.03;;;19.85;40.19
58775;BME280;44545;47.480;19.024;2023-04-19T12:18:07;99753.62;;;20.30;39.42
58775;BME280;44545;47.480;19.024;2023-04-19T12:21:12;99756.56;;;19.46;40.28
58775;BME280;44545;47.480;19.024;2023-04-19T12:24:25;99756.34;;;19.20;41.48
58775;BME280;44545;47.480;19.024;2023-04-19T12:27:28;99752.69;;;19.05;42.44
58775;BME280;44545;47.480;19.024;2023-04-19T12:30:30;99754.59;;;18.41;43.81
58775;BME280;44545;47.480;19.024;2023-04-19T12:33:33;99753.03;;;18.60;44.56
58775;BME280;44545;47.480;19.024;2023-04-19T12:36:35;99755.88;;;18.74;44.18
58775;BME280;44545;47.480;19.024;2023-04-19T12:39:37;99749.63;;;18.70;43.62
58775;BME280;44545;47.480;19.024;2023-04-19T12:42:40;99740.06;;;18.78;43.17
58775;BME280;44545;47.480;19.024;2023-04-19T12:45:42;99747.75;;;19.44;42.25
58775;BME280;44545;47.480;19.024;2023-04-19T12:48:45;99740.38;;;20.30;40.27
58775;BME280;44545;47.480;19.024;2023-04-19T12:51:48;99736.16;;;20.75;39.72
58775;BME280;44545;47.480;19.024;2023-04-19T12:54:50;99739.69;;;20.74;38.07
58775;BME280;44545;47.480;19.024;2023-04-19T12:57:52;99723.62;;;20.31;38.34
58775;BME280;44545;47.480;19.024;2023-04-19T13:00:55;99728.94;;;20.40;39.86
58775;BME280;44545;47.480;19.024;2023-04-19T13:03:57;99722.72;;;20.29;38.70
58775;BME280;44545;47.480;19.024;2023-04-19T13:07:01;99720.94;;;20.28;38.78
58775;BME280;44545;47.480;19.024;2023-04-19T13:10:03;99720.09;;;20.38;39.17
58775;BME280;44545;47.480;19.024;2023-04-19T13:13:06;99714.56;;;19.83;39.39
58775;BME280;44545;47.480;19.024;2023-04-19T13:16:08;99723.59;;;20.25;38.45
58775;BME280;44545;47.480;19.024;2023-04-19T13:19:11;99713.97;;;20.47;38.34
58775;BME280;44545;47.480;19.024;2023-04-19T13:22:13;99724.63;;;20.61;37.35
58775;BME280;44545;47.480;19.024;2023-04-19T13:25:16;99715.00;;;20.93;36.39
58775;BME280;44545;47.480;19.024;2023-04-19T13:28:18;99715.91;;;21.11;36.26
58775;BME280;44545;47.480;19.024;2023-04-19T13:31:21;99715.88;;;21.21;36.45
58775;BME280;44545;47.480;19.024;2023-04-19T13:34:23;99715.88;;;20.85;37.25
58775;BME280;44545;47.480;19.024;2023-04-19T13:37:25;99718.50;;;20.72;38.91
58775;BME280;44545;47.480;19.024;2023-04-19T13:40:28;99718.31;;;20.35;39.21
58775;BME280;44545;47.480;19.024;2023-04-19T13:43:30;99716.63;;;20.51;38.47
58775;BME280;44545;47.480;19.024;2023-04-19T13:46:32;99714.84;;;20.41;39.62
58775;BME280;44545;47.480;19.024;2023-04-19T13:49:35;99723.12;;;19.54;40.57
58775;BME280;44545;47.480;19.024;2023-04-19T13:52:37;99716.12;;;19.59;41.92
58775;BME280;44545;47.480;19.024;2023-04-19T13:55:40;99710.81;;;19.59;42.61
58775;BME280;44545;47.480;19.024;2023-04-19T13:58:42;99710.94;;;19.68;43.28
58775;BME280;44545;47.480;19.024;2023-04-19T14:01:44;99713.72;;;19.95;43.67
58775;BME280;44545;47.480;19.024;2023-04-19T14:04:47;99707.66;;;20.14;43.98
58775;BME280;44545;47.480;19.024;2023-04-19T14:07:49;99706.88;;;19.05;45.35
58775;BME280;44545;47.480;19.024;2023-04-19T14:10:52;99708.69;;;19.09;46.24
58775;BME280;44545;47.480;19.024;2023-04-19T14:13:54;99703.66;;;19.40;45.11
58775;BME280;44545;47.480;19.024;2023-04-19T14:16:57;99714.31;;;19.51;46.09
58775;BME280;44545;47.480;19.024;2023-04-19T14:19:59;99715.66;;;19.04;46.75
58775;BME280;44545;47.480;19.024;2023-04-19T14:23:02;99722.62;;;18.96;46.98
58775;BME280;44545;47.480;19.024;2023-04-19T14:26:04;99721.88;;;19.04;46.88
58775;BME280;44545;47.480;19.024;2023-04-19T14:29:07;99720.78;;;18.86;47.48
58775;BME280;44545;47.480;19.024;2023-04-19T14:32:09;99715.44;;;18.76;46.88
58775;BME280;44545;47.480;19.024;2023-04-19T14:35:26;99709.63;;;19.14;46.07
58775;BME280;44545;47.480;19.024;2023-04-19T14:38:28;99719.31;;;19.15;46.19
58775;BME280;44545;47.480;19.024;2023-04-19T14:41:31;99712.88;;;18.89;47.22
58775;BME280;44545;47.480;19.024;2023-04-19T14:44:33;99707.69;;;18.98;47.87
58775;BME280;44545;47.480;19.024;2023-04-19T14:47:35;99716.56;;;19.04;47.02
58775;BME280;44545;47.480;19.024;2023-04-19T14:50:37;99722.19;;;18.56;47.42
58775;BME280;44545;47.480;19.024;2023-04-19T14:53:40;99724.25;;;18.08;48.40
58775;BME280;44545;47.480;19.024;2023-04-19T14:56:42;99731.03;;;17.89;48.72
58775;BME280;44545;47.480;19.024;2023-04-19T14:59:44;99725.19;;;17.54;48.79
58775;BME280;44545;47.480;19.024;2023-04-19T15:02:47;99727.25;;;17.73;49.17
58775;BME280;44545;47.480;19.024;2023-04-19T15:05:51;99727.00;;;17.57;48.94
58775;BME280;44545;47.480;19.024;2023-04-19T15:08:53;99734.53;;;17.32;48.14
58775;BME280;44545;47.480;19.024;2023-04-19T15:11:55;99727.50;;;17.32;48.05
58775;BME280;44545;47.480;19.024;2023-04-19T15:14:58;99735.19;;;17.75;48.31
58775;BME280;44545;47.480;19.024;2023-04-19T15:18:01;99737.44;;;17.50;49.00
58775;BME280;44545;47.480;19.024;2023-04-19T15:21:04;99733.97;;;17.53;48.83
